Jomi — C6VK4 — position and weather

sailwx.info

Track history (hours):
 
Tides and Currents Weather Stations Pressure Air Temp Water Temp Dewpoint Dewpoint Depression Visibility Wind Speed Wind Dir Waves Ship Positions

Jomi

Last reported at 2014-Oct-30 18:20 UTC. Time now 2014-Oct-31 19:21 UTC.
Position N 36°32' W 000°34'.

Length 88 m; draft 5.9 m.

Type: Cargo ship. MMSI: 309701000.

Date/timePositionNaut miles runAvg speedWind from/ knotsBaromVisibWave heightAir tempDewpointWater temp
2014-Oct-30 18:20N 36°32' W 000°34'22510.3
2014-Oct-29 20:30N 36°05' W 005°12'8 1.9
2014-Oct-29 16:04N 36°05' W 005°22'5 9.8
2014-Oct-29 15:33N 36°01' W 005°24'201 7.4
2014-Oct-28 12:23N 36°44' W 009°28'7 8.6
2014-Oct-28 11:33N 36°50' W 009°33'9 8.9
2014-Oct-28 10:33N 36°58' W 009°36'9 8.8
2014-Oct-28 09:33N 37°07' W 009°39'9 8.8
2014-Oct-28 08:32N 37°15' W 009°42'10 9.1
2014-Oct-28 07:23N 37°25' W 009°44'8 9.2
2014-Oct-28 06:33N 37°33' W 009°46'9 8.8
2014-Oct-28 05:33N 37°42' W 009°48'9 9.2
2014-Oct-28 04:33N 37°51' W 009°51'10 9.5
2014-Oct-28 03:33N 37°60' W 009°54'10 9.7
2014-Oct-28 02:33N 38°09' W 009°56'10 9.8
2014-Oct-28 01:33N 38°19' W 009°59'10 9.8
2014-Oct-28 00:30N 38°29' W 010°02'9 9.9
2014-Oct-27 23:33N 38°38' W 010°05'2310.2
2014-Oct-27 21:15N 39°01' W 010°07'810.8
2014-Oct-27 20:33N 39°09' W 010°07'  
2014-Oct-24 03:33N 50°33' E 000°20'10 9.8
2014-Oct-24 02:33N 50°37' E 000°34'9 9.1
2014-Oct-24 01:33N 50°42' E 000°46'8 8.3
2014-Oct-24 00:32N 50°46' E 000°58'16 7.0
2014-Oct-23 22:13N 50°55' E 001°19'4 6.6
2014-Oct-23 21:32N 50°59' E 001°23'8 8.1
2014-Oct-23 20:33N 51°04' E 001°33'8 7.7
2014-Oct-23 19:33N 51°04' E 001°45'1010.4
2014-Oct-23 18:33N 51°03' E 002°01'1211.6
2014-Oct-23 17:33N 51°04' E 002°19'1 0.9
2014-Oct-23 16:33N 51°03' E 002°19'2 1.7
2014-Oct-23 15:32N 51°02' E 002°16'0 0.0
2014-Oct-23 14:32N 51°02' E 002°16'0 0.0
2014-Oct-23 13:32N 51°02' E 002°16'0 0.0
2014-Oct-23 12:32N 51°02' E 002°16'0 0.0
2014-Oct-23 11:32N 51°02' E 002°16'0 0.0
2014-Oct-23 10:32N 51°02' E 002°16'0 0.0
2014-Oct-23 09:32N 51°02' E 002°16'0 0.0
2014-Oct-23 08:33N 51°02' E 002°16'0 0.0
2014-Oct-23 07:33N 51°02' E 002°16'2 1.9
2014-Oct-23 06:33N 51°03' E 002°19'1 1.4
2014-Oct-23 05:33N 51°04' E 002°21'8 7.8
2014-Oct-23 04:33N 51°03' E 002°09'9 9.2
2014-Oct-23 03:33N 51°02' E 001°54'7 7.5
2014-Oct-23 02:33N 51°06' E 001°43'6 6.0
2014-Oct-23 01:33N 51°12' E 001°45'6 6.3
2014-Oct-23 00:33N 51°18' E 001°49'7 6.6
2014-Oct-22 23:33N 51°24' E 001°53'7 7.2
2014-Oct-22 22:33N 51°29' E 002°01'9 8.6
2014-Oct-22 21:33N 51°35' E 002°10'181 5.6
2014-Oct-21 13:27N 54°08' E 004°50'6 6.2
2014-Oct-21 12:33N 54°13' E 004°52'  
Track history (hours):
 
Tides and Currents Weather Stations Pressure Air Temp Water Temp Dewpoint Dewpoint Depression Visibility Wind Speed Wind Dir Waves Ship Positions

Jomi

Last reported at 2014-Oct-30 18:20 UTC. Time now 2014-Oct-31 19:21 UTC.
Position N 36°32' W 000°34'.

Length 88 m; draft 5.9 m.

Type: Cargo ship. MMSI: 309701000.

Date/timePositionNaut miles runAvg speedWind from/ knotsBaromVisibWave heightAir tempDewpointWater temp
2014-Oct-30 18:20N 36°32' W 000°34'22510.3
2014-Oct-29 20:30N 36°05' W 005°12'8 1.9
2014-Oct-29 16:04N 36°05' W 005°22'5 9.8
2014-Oct-29 15:33N 36°01' W 005°24'201 7.4
2014-Oct-28 12:23N 36°44' W 009°28'7 8.6
2014-Oct-28 11:33N 36°50' W 009°33'9 8.9
2014-Oct-28 10:33N 36°58' W 009°36'9 8.8
2014-Oct-28 09:33N 37°07' W 009°39'9 8.8
2014-Oct-28 08:32N 37°15' W 009°42'10 9.1
2014-Oct-28 07:23N 37°25' W 009°44'8 9.2
2014-Oct-28 06:33N 37°33' W 009°46'9 8.8
2014-Oct-28 05:33N 37°42' W 009°48'9 9.2
2014-Oct-28 04:33N 37°51' W 009°51'10 9.5
2014-Oct-28 03:33N 37°60' W 009°54'10 9.7
2014-Oct-28 02:33N 38°09' W 009°56'10 9.8
2014-Oct-28 01:33N 38°19' W 009°59'10 9.8
2014-Oct-28 00:30N 38°29' W 010°02'9 9.9
2014-Oct-27 23:33N 38°38' W 010°05'2310.2
2014-Oct-27 21:15N 39°01' W 010°07'810.8
2014-Oct-27 20:33N 39°09' W 010°07'  
2014-Oct-24 03:33N 50°33' E 000°20'10 9.8
2014-Oct-24 02:33N 50°37' E 000°34'9 9.1
2014-Oct-24 01:33N 50°42' E 000°46'8 8.3
2014-Oct-24 00:32N 50°46' E 000°58'16 7.0
2014-Oct-23 22:13N 50°55' E 001°19'4 6.6
2014-Oct-23 21:32N 50°59' E 001°23'8 8.1
2014-Oct-23 20:33N 51°04' E 001°33'8 7.7
2014-Oct-23 19:33N 51°04' E 001°45'1010.4
2014-Oct-23 18:33N 51°03' E 002°01'1211.6
2014-Oct-23 17:33N 51°04' E 002°19'1 0.9
2014-Oct-23 16:33N 51°03' E 002°19'2 1.7
2014-Oct-23 15:32N 51°02' E 002°16'0 0.0
2014-Oct-23 14:32N 51°02' E 002°16'0 0.0
2014-Oct-23 13:32N 51°02' E 002°16'0 0.0
2014-Oct-23 12:32N 51°02' E 002°16'0 0.0
2014-Oct-23 11:32N 51°02' E 002°16'0 0.0
2014-Oct-23 10:32N 51°02' E 002°16'0 0.0
2014-Oct-23 09:32N 51°02' E 002°16'0 0.0
2014-Oct-23 08:33N 51°02' E 002°16'0 0.0
2014-Oct-23 07:33N 51°02' E 002°16'2 1.9
2014-Oct-23 06:33N 51°03' E 002°19'1 1.4
2014-Oct-23 05:33N 51°04' E 002°21'8 7.8
2014-Oct-23 04:33N 51°03' E 002°09'9 9.2
2014-Oct-23 03:33N 51°02' E 001°54'7 7.5
2014-Oct-23 02:33N 51°06' E 001°43'6 6.0
2014-Oct-23 01:33N 51°12' E 001°45'6 6.3
2014-Oct-23 00:33N 51°18' E 001°49'7 6.6
2014-Oct-22 23:33N 51°24' E 001°53'7 7.2
2014-Oct-22 22:33N 51°29' E 002°01'9 8.6
2014-Oct-22 21:33N 51°35' E 002°10'181 5.6
2014-Oct-21 13:27N 54°08' E 004°50'6 6.2
2014-Oct-21 12:33N 54°13' E 004°52'  

Dump ship's entire track history